sensor_id;sensor_type;location;lat;lon;timestamp;P1;durP1;ratioP1;P2;durP2;ratioP2
15936;SDS011;9163;48.818;8.976;2023-04-12T00:01:57;6.20;;;2.50;;
15936;SDS011;9163;48.818;8.976;2023-04-12T00:04:25;6.27;;;2.30;;
15936;SDS011;9163;48.818;8.976;2023-04-12T00:06:53;7.90;;;2.43;;
15936;SDS011;9163;48.818;8.976;2023-04-12T00:09:21;4.97;;;2.20;;
15936;SDS011;9163;48.818;8.976;2023-04-12T00:11:48;5.90;;;2.50;;
15936;SDS011;9163;48.818;8.976;2023-04-12T00:14:15;5.10;;;2.60;;
15936;SDS011;9163;48.818;8.976;2023-04-12T00:16:42;5.97;;;2.40;;
15936;SDS011;9163;48.818;8.976;2023-04-12T00:19:12;5.70;;;2.07;;
15936;SDS011;9163;48.818;8.976;2023-04-12T00:21:41;8.57;;;2.50;;
15936;SDS011;9163;48.818;8.976;2023-04-12T00:24:08;5.90;;;2.30;;
15936;SDS011;9163;48.818;8.976;2023-04-12T00:26:36;6.43;;;2.30;;
15936;SDS011;9163;48.818;8.976;2023-04-12T00:29:03;5.73;;;2.23;;
15936;SDS011;9163;48.818;8.976;2023-04-12T00:31:30;5.43;;;2.27;;
15936;SDS011;9163;48.818;8.976;2023-04-12T00:33:57;5.77;;;2.23;;
15936;SDS011;9163;48.818;8.976;2023-04-12T00:36:26;6.43;;;2.10;;
15936;SDS011;9163;48.818;8.976;2023-04-12T00:38:53;9.53;;;2.60;;
15936;SDS011;9163;48.818;8.976;2023-04-12T00:41:20;8.17;;;2.60;;
15936;SDS011;9163;48.818;8.976;2023-04-12T00:43:49;6.97;;;2.70;;
15936;SDS011;9163;48.818;8.976;2023-04-12T00:46:16;9.40;;;2.43;;
15936;SDS011;9163;48.818;8.976;2023-04-12T00:48:45;5.43;;;2.53;;
15936;SDS011;9163;48.818;8.976;2023-04-12T00:51:12;6.57;;;2.00;;
15936;SDS011;9163;48.818;8.976;2023-04-12T00:53:43;5.00;;;2.20;;
15936;SDS011;9163;48.818;8.976;2023-04-12T00:56:11;7.90;;;2.30;;
15936;SDS011;9163;48.818;8.976;2023-04-12T00:58:38;7.37;;;2.63;;
15936;SDS011;9163;48.818;8.976;2023-04-12T01:01:06;6.67;;;2.60;;
15936;SDS011;9163;48.818;8.976;2023-04-12T01:03:34;5.97;;;2.37;;
15936;SDS011;9163;48.818;8.976;2023-04-12T01:06:09;6.20;;;2.60;;
15936;SDS011;9163;48.818;8.976;2023-04-12T01:08:42;8.83;;;2.60;;
15936;SDS011;9163;48.818;8.976;2023-04-12T01:11:22;6.87;;;2.57;;
15936;SDS011;9163;48.818;8.976;2023-04-12T01:13:54;8.23;;;2.73;;
15936;SDS011;9163;48.818;8.976;2023-04-12T01:16:29;7.07;;;2.77;;
15936;SDS011;9163;48.818;8.976;2023-04-12T01:19:03;7.10;;;2.93;;
15936;SDS011;9163;48.818;8.976;2023-04-12T01:21:49;6.43;;;3.00;;
15936;SDS011;9163;48.818;8.976;2023-04-12T01:24:31;8.33;;;3.00;;
15936;SDS011;9163;48.818;8.976;2023-04-12T01:27:06;7.90;;;3.17;;
15936;SDS011;9163;48.818;8.976;2023-04-12T01:29:42;7.60;;;3.30;;
15936;SDS011;9163;48.818;8.976;2023-04-12T01:32:14;7.43;;;3.43;;
15936;SDS011;9163;48.818;8.976;2023-04-12T01:34:42;10.23;;;3.50;;
15936;SDS011;9163;48.818;8.976;2023-04-12T01:37:11;9.50;;;3.70;;
15936;SDS011;9163;48.818;8.976;2023-04-12T01:39:40;8.27;;;3.67;;
15936;SDS011;9163;48.818;8.976;2023-04-12T01:42:08;7.30;;;3.80;;
15936;SDS011;9163;48.818;8.976;2023-04-12T01:44:35;6.20;;;3.80;;
15936;SDS011;9163;48.818;8.976;2023-04-12T01:47:04;9.00;;;3.57;;
15936;SDS011;9163;48.818;8.976;2023-04-12T01:49:32;10.50;;;3.30;;
15936;SDS011;9163;48.818;8.976;2023-04-12T01:52:09;7.20;;;3.80;;
15936;SDS011;9163;48.818;8.976;2023-04-12T01:54:40;8.53;;;3.60;;
15936;SDS011;9163;48.818;8.976;2023-04-12T01:57:10;6.23;;;3.23;;
15936;SDS011;9163;48.818;8.976;2023-04-12T01:59:38;7.47;;;2.80;;
15936;SDS011;9163;48.818;8.976;2023-04-12T02:02:07;3.80;;;2.30;;
15936;SDS011;9163;48.818;8.976;2023-04-12T02:04:36;6.40;;;2.77;;
15936;SDS011;9163;48.818;8.976;2023-04-12T02:07:04;6.47;;;3.53;;
15936;SDS011;9163;48.818;8.976;2023-04-12T02:09:34;6.57;;;3.20;;
15936;SDS011;9163;48.818;8.976;2023-04-12T02:12:03;9.43;;;3.50;;
15936;SDS011;9163;48.818;8.976;2023-04-12T02:14:30;9.90;;;3.43;;
15936;SDS011;9163;48.818;8.976;2023-04-12T02:16:58;4.93;;;3.00;;
15936;SDS011;9163;48.818;8.976;2023-04-12T02:19:28;8.13;;;3.40;;
15936;SDS011;9163;48.818;8.976;2023-04-12T02:21:55;9.50;;;3.40;;
15936;SDS011;9163;48.818;8.976;2023-04-12T02:24:23;7.77;;;3.27;;
15936;SDS011;9163;48.818;8.976;2023-04-12T02:26:50;9.27;;;3.33;;
15936;SDS011;9163;48.818;8.976;2023-04-12T02:29:19;9.73;;;3.40;;
15936;SDS011;9163;48.818;8.976;2023-04-12T02:31:46;6.23;;;3.10;;
15936;SDS011;9163;48.818;8.976;2023-04-12T02:34:13;8.73;;;3.33;;
15936;SDS011;9163;48.818;8.976;2023-04-12T02:36:46;7.20;;;3.10;;
15936;SDS011;9163;48.818;8.976;2023-04-12T02:39:13;10.97;;;3.33;;
15936;SDS011;9163;48.818;8.976;2023-04-12T02:41:42;8.80;;;3.63;;
15936;SDS011;9163;48.818;8.976;2023-04-12T02:44:10;10.13;;;3.83;;
15936;SDS011;9163;48.818;8.976;2023-04-12T02:46:37;7.33;;;3.43;;
15936;SDS011;9163;48.818;8.976;2023-04-12T02:49:04;9.40;;;3.83;;
15936;SDS011;9163;48.818;8.976;2023-04-12T02:51:32;7.33;;;3.70;;
15936;SDS011;9163;48.818;8.976;2023-04-12T02:54:00;8.60;;;3.77;;
15936;SDS011;9163;48.818;8.976;2023-04-12T02:56:28;9.63;;;4.30;;
15936;SDS011;9163;48.818;8.976;2023-04-12T02:58:55;14.23;;;6.43;;
15936;SDS011;9163;48.818;8.976;2023-04-12T03:01:22;9.90;;;4.40;;
15936;SDS011;9163;48.818;8.976;2023-04-12T03:03:50;10.37;;;4.40;;
15936;SDS011;9163;48.818;8.976;2023-04-12T03:06:17;8.07;;;4.43;;
15936;SDS011;9163;48.818;8.976;2023-04-12T03:08:44;7.73;;;4.17;;
15936;SDS011;9163;48.818;8.976;2023-04-12T03:11:13;7.87;;;3.70;;
15936;SDS011;9163;48.818;8.976;2023-04-12T03:13:41;9.13;;;3.70;;
15936;SDS011;9163;48.818;8.976;2023-04-12T03:16:20;7.23;;;3.47;;
15936;SDS011;9163;48.818;8.976;2023-04-12T03:18:48;10.97;;;3.73;;
15936;SDS011;9163;48.818;8.976;2023-04-12T03:21:16;7.63;;;3.67;;
15936;SDS011;9163;48.818;8.976;2023-04-12T03:23:43;9.63;;;3.67;;
15936;SDS011;9163;48.818;8.976;2023-04-12T03:26:11;8.70;;;3.80;;
15936;SDS011;9163;48.818;8.976;2023-04-12T03:28:39;13.60;;;3.70;;
15936;SDS011;9163;48.818;8.976;2023-04-12T03:31:07;12.37;;;4.87;;
15936;SDS011;9163;48.818;8.976;2023-04-12T03:33:35;10.33;;;4.17;;
15936;SDS011;9163;48.818;8.976;2023-04-12T03:36:02;8.43;;;3.67;;
15936;SDS011;9163;48.818;8.976;2023-04-12T03:38:30;6.43;;;3.90;;
15936;SDS011;9163;48.818;8.976;2023-04-12T03:40:57;7.37;;;3.73;;
15936;SDS011;9163;48.818;8.976;2023-04-12T03:43:24;8.23;;;4.10;;
15936;SDS011;9163;48.818;8.976;2023-04-12T03:45:54;9.90;;;3.80;;
15936;SDS011;9163;48.818;8.976;2023-04-12T03:48:21;8.43;;;4.03;;
15936;SDS011;9163;48.818;8.976;2023-04-12T03:50:48;7.47;;;3.63;;
15936;SDS011;9163;48.818;8.976;2023-04-12T03:53:19;7.30;;;3.30;;
15936;SDS011;9163;48.818;8.976;2023-04-12T03:55:46;7.17;;;3.43;;
15936;SDS011;9163;48.818;8.976;2023-04-12T03:58:13;5.57;;;3.40;;
15936;SDS011;9163;48.818;8.976;2023-04-12T04:00:41;6.57;;;3.43;;
15936;SDS011;9163;48.818;8.976;2023-04-12T04:03:10;6.67;;;3.23;;
15936;SDS011;9163;48.818;8.976;2023-04-12T04:05:37;10.93;;;3.70;;
15936;SDS011;9163;48.818;8.976;2023-04-12T04:08:05;5.87;;;3.00;;
15936;SDS011;9163;48.818;8.976;2023-04-12T04:10:33;6.60;;;3.10;;
15936;SDS011;9163;48.818;8.976;2023-04-12T04:13:00;5.03;;;2.93;;
15936;SDS011;9163;48.818;8.976;2023-04-12T04:15:28;8.20;;;3.20;;
15936;SDS011;9163;48.818;8.976;2023-04-12T04:17:55;6.20;;;2.90;;
15936;SDS011;9163;48.818;8.976;2023-04-12T04:20:24;7.80;;;3.20;;
15936;SDS011;9163;48.818;8.976;2023-04-12T04:22:51;6.57;;;3.53;;
15936;SDS011;9163;48.818;8.976;2023-04-12T04:25:18;7.00;;;3.10;;
15936;SDS011;9163;48.818;8.976;2023-04-12T04:27:46;5.00;;;2.53;;
15936;SDS011;9163;48.818;8.976;2023-04-12T04:30:13;5.33;;;2.50;;
15936;SDS011;9163;48.818;8.976;2023-04-12T04:32:41;4.30;;;2.67;;
15936;SDS011;9163;48.818;8.976;2023-04-12T04:35:08;5.07;;;2.60;;
15936;SDS011;9163;48.818;8.976;2023-04-12T04:37:42;4.57;;;2.50;;
15936;SDS011;9163;48.818;8.976;2023-04-12T04:40:09;7.10;;;2.70;;
15936;SDS011;9163;48.818;8.976;2023-04-12T04:42:37;6.07;;;2.37;;
15936;SDS011;9163;48.818;8.976;2023-04-12T04:45:05;5.67;;;2.67;;
15936;SDS011;9163;48.818;8.976;2023-04-12T04:47:38;3.80;;;2.03;;
15936;SDS011;9163;48.818;8.976;2023-04-12T04:50:06;4.93;;;2.47;;
15936;SDS011;9163;48.818;8.976;2023-04-12T04:52:33;6.67;;;2.50;;
15936;SDS011;9163;48.818;8.976;2023-04-12T04:55:03;4.60;;;2.30;;
15936;SDS011;9163;48.818;8.976;2023-04-12T04:57:32;4.13;;;2.50;;
15936;SDS011;9163;48.818;8.976;2023-04-12T05:00:00;4.70;;;2.70;;
15936;SDS011;9163;48.818;8.976;2023-04-12T05:02:35;8.57;;;2.77;;
15936;SDS011;9163;48.818;8.976;2023-04-12T05:05:04;4.80;;;1.87;;
15936;SDS011;9163;48.818;8.976;2023-04-12T05:07:32;3.97;;;2.47;;
15936;SDS011;9163;48.818;8.976;2023-04-12T05:09:59;4.90;;;2.43;;
15936;SDS011;9163;48.818;8.976;2023-04-12T05:12:28;6.93;;;2.60;;
15936;SDS011;9163;48.818;8.976;2023-04-12T05:14:55;3.60;;;2.47;;
15936;SDS011;9163;48.818;8.976;2023-04-12T05:17:23;5.17;;;2.37;;
15936;SDS011;9163;48.818;8.976;2023-04-12T05:19:50;3.23;;;1.87;;
15936;SDS011;9163;48.818;8.976;2023-04-12T05:22:17;4.67;;;2.17;;
15936;SDS011;9163;48.818;8.976;2023-04-12T05:24:46;4.53;;;2.10;;
15936;SDS011;9163;48.818;8.976;2023-04-12T05:27:13;5.57;;;2.20;;
15936;SDS011;9163;48.818;8.976;2023-04-12T05:29:42;3.23;;;1.97;;
15936;SDS011;9163;48.818;8.976;2023-04-12T05:32:10;3.87;;;1.87;;
15936;SDS011;9163;48.818;8.976;2023-04-12T05:34:37;4.03;;;2.10;;
15936;SDS011;9163;48.818;8.976;2023-04-12T05:37:04;4.30;;;2.03;;
15936;SDS011;9163;48.818;8.976;2023-04-12T05:39:32;4.10;;;2.00;;
15936;SDS011;9163;48.818;8.976;2023-04-12T05:41:59;3.83;;;2.13;;
15936;SDS011;9163;48.818;8.976;2023-04-12T05:44:27;4.10;;;2.27;;
15936;SDS011;9163;48.818;8.976;2023-04-12T05:46:55;4.87;;;2.20;;
15936;SDS011;9163;48.818;8.976;2023-04-12T05:49:23;2.73;;;1.77;;
15936;SDS011;9163;48.818;8.976;2023-04-12T05:51:50;2.77;;;1.93;;
15936;SDS011;9163;48.818;8.976;2023-04-12T05:54:17;2.90;;;2.10;;
15936;SDS011;9163;48.818;8.976;2023-04-12T05:56:45;3.53;;;2.30;;
15936;SDS011;9163;48.818;8.976;2023-04-12T05:59:12;6.17;;;3.00;;
15936;SDS011;9163;48.818;8.976;2023-04-12T06:01:40;5.70;;;2.13;;
15936;SDS011;9163;48.818;8.976;2023-04-12T06:04:10;5.00;;;2.30;;
15936;SDS011;9163;48.818;8.976;2023-04-12T06:06:38;4.97;;;2.23;;
15936;SDS011;9163;48.818;8.976;2023-04-12T06:09:05;3.97;;;2.03;;
15936;SDS011;9163;48.818;8.976;2023-04-12T06:11:32;4.63;;;2.30;;
15936;SDS011;9163;48.818;8.976;2023-04-12T06:14:00;3.70;;;2.17;;
15936;SDS011;9163;48.818;8.976;2023-04-12T06:16:27;3.17;;;2.00;;
15936;SDS011;9163;48.818;8.976;2023-04-12T06:18:55;3.73;;;2.20;;
15936;SDS011;9163;48.818;8.976;2023-04-12T06:21:23;3.37;;;2.00;;
15936;SDS011;9163;48.818;8.976;2023-04-12T06:23:51;4.97;;;2.10;;
15936;SDS011;9163;48.818;8.976;2023-04-12T06:26:18;4.90;;;2.40;;
15936;SDS011;9163;48.818;8.976;2023-04-12T06:28:45;3.73;;;2.20;;
15936;SDS011;9163;48.818;8.976;2023-04-12T06:31:13;4.27;;;2.33;;
15936;SDS011;9163;48.818;8.976;2023-04-12T06:33:41;4.90;;;2.10;;
15936;SDS011;9163;48.818;8.976;2023-04-12T06:36:08;2.60;;;2.00;;
15936;SDS011;9163;48.818;8.976;2023-04-12T06:38:37;4.67;;;2.17;;
15936;SDS011;9163;48.818;8.976;2023-04-12T06:41:04;4.23;;;2.33;;
15936;SDS011;9163;48.818;8.976;2023-04-12T06:43:32;4.27;;;2.43;;
15936;SDS011;9163;48.818;8.976;2023-04-12T06:45:59;4.27;;;2.17;;
15936;SDS011;9163;48.818;8.976;2023-04-12T06:48:27;3.40;;;2.00;;
15936;SDS011;9163;48.818;8.976;2023-04-12T06:50:55;3.60;;;1.93;;
15936;SDS011;9163;48.818;8.976;2023-04-12T06:53:22;5.13;;;2.30;;
15936;SDS011;9163;48.818;8.976;2023-04-12T06:55:51;4.73;;;2.30;;
15936;SDS011;9163;48.818;8.976;2023-04-12T06:58:18;5.20;;;3.17;;
15936;SDS011;9163;48.818;8.976;2023-04-12T07:00:45;4.03;;;2.50;;
15936;SDS011;9163;48.818;8.976;2023-04-12T07:03:12;5.20;;;2.20;;
15936;SDS011;9163;48.818;8.976;2023-04-12T07:05:40;5.13;;;2.80;;
15936;SDS011;9163;48.818;8.976;2023-04-12T07:08:07;6.53;;;2.30;;
15936;SDS011;9163;48.818;8.976;2023-04-12T07:10:35;3.23;;;2.37;;
15936;SDS011;9163;48.818;8.976;2023-04-12T07:13:03;7.13;;;2.43;;
15936;SDS011;9163;48.818;8.976;2023-04-12T07:15:32;4.17;;;2.07;;
15936;SDS011;9163;48.818;8.976;2023-04-12T07:17:59;3.20;;;1.97;;
15936;SDS011;9163;48.818;8.976;2023-04-12T07:20:27;4.03;;;2.10;;
15936;SDS011;9163;48.818;8.976;2023-04-12T07:22:54;6.90;;;2.07;;
15936;SDS011;9163;48.818;8.976;2023-04-12T07:25:21;3.53;;;2.20;;
15936;SDS011;9163;48.818;8.976;2023-04-12T07:27:49;4.90;;;2.00;;
15936;SDS011;9163;48.818;8.976;2023-04-12T07:30:17;4.67;;;1.90;;
15936;SDS011;9163;48.818;8.976;2023-04-12T07:32:45;3.27;;;1.97;;
15936;SDS011;9163;48.818;8.976;2023-04-12T07:35:13;3.23;;;2.13;;
15936;SDS011;9163;48.818;8.976;2023-04-12T07:37:40;4.93;;;1.80;;
15936;SDS011;9163;48.818;8.976;2023-04-12T07:40:08;3.40;;;1.83;;
15936;SDS011;9163;48.818;8.976;2023-04-12T07:42:35;3.73;;;2.17;;
15936;SDS011;9163;48.818;8.976;2023-04-12T07:45:02;4.87;;;2.10;;
15936;SDS011;9163;48.818;8.976;2023-04-12T07:47:31;3.60;;;1.70;;
15936;SDS011;9163;48.818;8.976;2023-04-12T07:49:59;4.53;;;1.77;;
15936;SDS011;9163;48.818;8.976;2023-04-12T07:52:26;3.17;;;1.63;;
15936;SDS011;9163;48.818;8.976;2023-04-12T07:54:53;2.90;;;1.70;;
15936;SDS011;9163;48.818;8.976;2023-04-12T07:57:20;3.53;;;1.57;;
15936;SDS011;9163;48.818;8.976;2023-04-12T07:59:48;2.53;;;1.70;;
15936;SDS011;9163;48.818;8.976;2023-04-12T08:02:16;3.90;;;1.67;;
15936;SDS011;9163;48.818;8.976;2023-04-12T08:04:50;4.50;;;1.70;;
15936;SDS011;9163;48.818;8.976;2023-04-12T08:07:18;4.20;;;1.80;;
15936;SDS011;9163;48.818;8.976;2023-04-12T08:09:46;3.27;;;1.77;;
15936;SDS011;9163;48.818;8.976;2023-04-12T08:12:14;3.97;;;2.07;;
15936;SDS011;9163;48.818;8.976;2023-04-12T08:14:41;4.13;;;2.00;;
15936;SDS011;9163;48.818;8.976;2023-04-12T08:17:09;4.70;;;2.00;;
15936;SDS011;9163;48.818;8.976;2023-04-12T08:19:36;3.07;;;1.97;;
15936;SDS011;9163;48.818;8.976;2023-04-12T08:22:05;2.73;;;2.00;;
15936;SDS011;9163;48.818;8.976;2023-04-12T08:24:32;2.93;;;1.70;;
15936;SDS011;9163;48.818;8.976;2023-04-12T08:27:00;3.33;;;2.10;;
15936;SDS011;9163;48.818;8.976;2023-04-12T08:29:28;3.83;;;2.17;;
15936;SDS011;9163;48.818;8.976;2023-04-12T08:31:55;4.47;;;1.90;;
15936;SDS011;9163;48.818;8.976;2023-04-12T08:34:25;4.50;;;1.90;;
15936;SDS011;9163;48.818;8.976;2023-04-12T08:36:52;5.60;;;2.07;;
15936;SDS011;9163;48.818;8.976;2023-04-12T08:39:20;5.43;;;2.07;;
15936;SDS011;9163;48.818;8.976;2023-04-12T08:41:48;4.30;;;2.03;;
15936;SDS011;9163;48.818;8.976;2023-04-12T08:44:17;5.70;;;2.50;;
15936;SDS011;9163;48.818;8.976;2023-04-12T08:46:45;6.00;;;2.20;;
15936;SDS011;9163;48.818;8.976;2023-04-12T08:49:13;3.87;;;2.10;;
15936;SDS011;9163;48.818;8.976;2023-04-12T08:51:43;3.47;;;2.20;;
15936;SDS011;9163;48.818;8.976;2023-04-12T08:54:10;4.00;;;1.90;;
15936;SDS011;9163;48.818;8.976;2023-04-12T08:56:41;6.20;;;2.27;;
15936;SDS011;9163;48.818;8.976;2023-04-12T08:59:10;3.43;;;2.00;;
15936;SDS011;9163;48.818;8.976;2023-04-12T09:01:40;4.47;;;1.97;;
15936;SDS011;9163;48.818;8.976;2023-04-12T09:04:07;4.93;;;1.83;;
15936;SDS011;9163;48.818;8.976;2023-04-12T09:06:34;4.47;;;1.77;;
15936;SDS011;9163;48.818;8.976;2023-04-12T09:09:02;5.37;;;1.93;;
15936;SDS011;9163;48.818;8.976;2023-04-12T09:11:31;3.53;;;1.73;;
15936;SDS011;9163;48.818;8.976;2023-04-12T09:13:59;4.60;;;2.03;;
15936;SDS011;9163;48.818;8.976;2023-04-12T09:16:36;3.03;;;1.77;;
15936;SDS011;9163;48.818;8.976;2023-04-12T09:19:04;3.50;;;1.90;;
15936;SDS011;9163;48.818;8.976;2023-04-12T09:21:32;4.10;;;1.90;;
15936;SDS011;9163;48.818;8.976;2023-04-12T09:24:01;4.27;;;1.90;;
15936;SDS011;9163;48.818;8.976;2023-04-12T09:26:30;5.10;;;2.03;;
15936;SDS011;9163;48.818;8.976;2023-04-12T09:28:57;3.43;;;2.13;;
15936;SDS011;9163;48.818;8.976;2023-04-12T09:31:26;6.00;;;2.00;;
15936;SDS011;9163;48.818;8.976;2023-04-12T09:33:55;3.03;;;2.10;;
15936;SDS011;9163;48.818;8.976;2023-04-12T09:36:35;4.33;;;1.93;;
15936;SDS011;9163;48.818;8.976;2023-04-12T09:39:03;3.97;;;1.90;;
15936;SDS011;9163;48.818;8.976;2023-04-12T09:41:31;3.30;;;1.90;;
15936;SDS011;9163;48.818;8.976;2023-04-12T09:43:59;4.10;;;2.50;;
15936;SDS011;9163;48.818;8.976;2023-04-12T09:46:30;2.97;;;1.97;;
15936;SDS011;9163;48.818;8.976;2023-04-12T09:49:00;4.73;;;2.00;;
15936;SDS011;9163;48.818;8.976;2023-04-12T09:51:28;3.27;;;2.30;;
15936;SDS011;9163;48.818;8.976;2023-04-12T09:53:57;4.03;;;2.20;;
15936;SDS011;9163;48.818;8.976;2023-04-12T09:56:27;6.17;;;2.43;;
15936;SDS011;9163;48.818;8.976;2023-04-12T09:58:58;4.07;;;2.03;;
15936;SDS011;9163;48.818;8.976;2023-04-12T10:01:29;3.10;;;2.20;;
15936;SDS011;9163;48.818;8.976;2023-04-12T10:04:00;5.50;;;2.10;;
15936;SDS011;9163;48.818;8.976;2023-04-12T10:06:28;5.20;;;2.17;;
15936;SDS011;9163;48.818;8.976;2023-04-12T10:08:55;4.47;;;2.30;;
15936;SDS011;9163;48.818;8.976;2023-04-12T10:11:23;2.97;;;2.00;;
15936;SDS011;9163;48.818;8.976;2023-04-12T10:13:53;4.47;;;2.03;;
15936;SDS011;9163;48.818;8.976;2023-04-12T10:16:23;4.10;;;1.93;;
15936;SDS011;9163;48.818;8.976;2023-04-12T10:18:53;6.10;;;1.50;;
15936;SDS011;9163;48.818;8.976;2023-04-12T10:21:21;4.33;;;1.80;;
15936;SDS011;9163;48.818;8.976;2023-04-12T10:23:49;3.90;;;1.80;;
15936;SDS011;9163;48.818;8.976;2023-04-12T10:26:16;2.33;;;1.70;;
15936;SDS011;9163;48.818;8.976;2023-04-12T10:28:44;5.20;;;1.60;;
15936;SDS011;9163;48.818;8.976;2023-04-12T10:31:28;2.80;;;1.53;;
15936;SDS011;9163;48.818;8.976;2023-04-12T10:33:57;2.47;;;1.60;;
15936;SDS011;9163;48.818;8.976;2023-04-12T10:39:16;2.17;;;1.30;;
15936;SDS011;9163;48.818;8.976;2023-04-12T10:44:45;1.87;;;1.20;;
15936;SDS011;9163;48.818;8.976;2023-04-12T10:47:14;3.87;;;1.50;;
15936;SDS011;9163;48.818;8.976;2023-04-12T10:52:55;2.20;;;1.20;;
15936;SDS011;9163;48.818;8.976;2023-04-12T10:55:50;3.27;;;1.17;;
15936;SDS011;9163;48.818;8.976;2023-04-12T11:01:20;3.90;;;1.50;;
15936;SDS011;9163;48.818;8.976;2023-04-12T11:06:40;2.63;;;1.20;;
15936;SDS011;9163;48.818;8.976;2023-04-12T11:09:15;2.23;;;1.40;;
15936;SDS011;9163;48.818;8.976;2023-04-12T11:11:43;2.63;;;1.30;;
15936;SDS011;9163;48.818;8.976;2023-04-12T11:14:11;2.03;;;1.07;;
15936;SDS011;9163;48.818;8.976;2023-04-12T11:19:49;2.50;;;1.20;;
15936;SDS011;9163;48.818;8.976;2023-04-12T11:22:19;2.27;;;1.20;;
15936;SDS011;9163;48.818;8.976;2023-04-12T11:24:48;3.07;;;1.40;;
15936;SDS011;9163;48.818;8.976;2023-04-12T11:27:17;2.00;;;1.10;;
15936;SDS011;9163;48.818;8.976;2023-04-12T11:29:49;2.43;;;1.20;;
15936;SDS011;9163;48.818;8.976;2023-04-12T11:32:19;3.23;;;1.10;;
15936;SDS011;9163;48.818;8.976;2023-04-12T11:34:49;2.97;;;1.30;;
15936;SDS011;9163;48.818;8.976;2023-04-12T11:37:19;1.93;;;1.30;;
15936;SDS011;9163;48.818;8.976;2023-04-12T11:39:49;1.30;;;0.97;;
15936;SDS011;9163;48.818;8.976;2023-04-12T11:42:19;2.33;;;1.00;;
15936;SDS011;9163;48.818;8.976;2023-04-12T11:44:48;1.47;;;0.97;;
15936;SDS011;9163;48.818;8.976;2023-04-12T11:47:16;1.63;;;1.00;;
15936;SDS011;9163;48.818;8.976;2023-04-12T11:49:45;1.57;;;1.17;;
15936;SDS011;9163;48.818;8.976;2023-04-12T11:52:16;1.40;;;1.10;;
15936;SDS011;9163;48.818;8.976;2023-04-12T11:54:44;2.60;;;1.10;;
15936;SDS011;9163;48.818;8.976;2023-04-12T11:57:13;1.83;;;1.17;;
15936;SDS011;9163;48.818;8.976;2023-04-12T11:59:43;2.47;;;1.00;;
15936;SDS011;9163;48.818;8.976;2023-04-12T12:02:11;3.23;;;0.90;;
15936;SDS011;9163;48.818;8.976;2023-04-12T12:04:40;2.07;;;1.10;;
15936;SDS011;9163;48.818;8.976;2023-04-12T12:07:10;2.13;;;1.00;;
15936;SDS011;9163;48.818;8.976;2023-04-12T12:09:39;1.23;;;0.80;;
15936;SDS011;9163;48.818;8.976;2023-04-12T12:12:08;1.73;;;0.80;;
15936;SDS011;9163;48.818;8.976;2023-04-12T12:14:37;1.47;;;1.10;;
15936;SDS011;9163;48.818;8.976;2023-04-12T12:17:08;1.87;;;1.00;;
15936;SDS011;9163;48.818;8.976;2023-04-12T12:19:37;1.60;;;0.77;;
15936;SDS011;9163;48.818;8.976;2023-04-12T12:22:12;2.43;;;0.90;;
15936;SDS011;9163;48.818;8.976;2023-04-12T12:24:45;2.03;;;1.00;;
15936;SDS011;9163;48.818;8.976;2023-04-12T12:27:16;1.87;;;0.90;;
15936;SDS011;9163;48.818;8.976;2023-04-12T12:29:47;1.47;;;0.87;;
15936;SDS011;9163;48.818;8.976;2023-04-12T12:32:16;2.47;;;1.00;;
15936;SDS011;9163;48.818;8.976;2023-04-12T12:34:50;1.40;;;0.80;;
15936;SDS011;9163;48.818;8.976;2023-04-12T12:37:19;1.30;;;0.87;;
15936;SDS011;9163;48.818;8.976;2023-04-12T12:40:02;3.13;;;1.10;;
15936;SDS011;9163;48.818;8.976;2023-04-12T12:42:44;1.77;;;0.80;;
15936;SDS011;9163;48.818;8.976;2023-04-12T12:45:13;2.70;;;0.90;;
15936;SDS011;9163;48.818;8.976;2023-04-12T12:47:47;1.80;;;0.80;;
15936;SDS011;9163;48.818;8.976;2023-04-12T12:50:16;1.33;;;0.77;;
15936;SDS011;9163;48.818;8.976;2023-04-12T12:52:44;2.87;;;1.20;;
15936;SDS011;9163;48.818;8.976;2023-04-12T12:55:13;1.57;;;1.07;;
15936;SDS011;9163;48.818;8.976;2023-04-12T12:57:41;1.60;;;0.90;;
15936;SDS011;9163;48.818;8.976;2023-04-12T13:00:10;1.33;;;1.00;;
15936;SDS011;9163;48.818;8.976;2023-04-12T13:02:39;1.47;;;0.87;;
15936;SDS011;9163;48.818;8.976;2023-04-12T13:05:07;1.50;;;1.00;;
15936;SDS011;9163;48.818;8.976;2023-04-12T13:07:35;2.03;;;0.93;;
15936;SDS011;9163;48.818;8.976;2023-04-12T13:10:03;2.23;;;0.90;;
15936;SDS011;9163;48.818;8.976;2023-04-12T13:12:33;2.47;;;0.83;;
15936;SDS011;9163;48.818;8.976;2023-04-12T13:15:00;2.30;;;0.90;;
15936;SDS011;9163;48.818;8.976;2023-04-12T13:17:28;2.50;;;0.90;;
15936;SDS011;9163;48.818;8.976;2023-04-12T13:19:56;2.23;;;0.83;;
15936;SDS011;9163;48.818;8.976;2023-04-12T13:22:24;2.77;;;0.90;;
15936;SDS011;9163;48.818;8.976;2023-04-12T13:24:51;1.93;;;1.00;;
15936;SDS011;9163;48.818;8.976;2023-04-12T13:27:19;3.47;;;0.87;;
15936;SDS011;9163;48.818;8.976;2023-04-12T13:29:48;3.67;;;0.97;;
15936;SDS011;9163;48.818;8.976;2023-04-12T13:32:15;2.03;;;0.90;;
15936;SDS011;9163;48.818;8.976;2023-04-12T13:34:43;1.53;;;0.90;;
15936;SDS011;9163;48.818;8.976;2023-04-12T13:37:10;2.43;;;0.90;;
15936;SDS011;9163;48.818;8.976;2023-04-12T13:39:37;3.80;;;1.10;;
15936;SDS011;9163;48.818;8.976;2023-04-12T13:42:05;1.73;;;0.70;;
15936;SDS011;9163;48.818;8.976;2023-04-12T13:44:33;1.27;;;0.90;;
15936;SDS011;9163;48.818;8.976;2023-04-12T13:47:02;1.87;;;1.00;;
15936;SDS011;9163;48.818;8.976;2023-04-12T13:49:30;1.43;;;0.90;;
15936;SDS011;9163;48.818;8.976;2023-04-12T13:51:57;1.70;;;0.93;;
15936;SDS011;9163;48.818;8.976;2023-04-12T13:54:24;2.90;;;0.97;;
15936;SDS011;9163;48.818;8.976;2023-04-12T13:56:51;2.23;;;0.80;;
15936;SDS011;9163;48.818;8.976;2023-04-12T13:59:19;1.30;;;0.70;;
15936;SDS011;9163;48.818;8.976;2023-04-12T14:01:46;3.13;;;0.87;;
15936;SDS011;9163;48.818;8.976;2023-04-12T14:04:14;2.10;;;0.90;;
15936;SDS011;9163;48.818;8.976;2023-04-12T14:06:42;4.07;;;0.90;;
15936;SDS011;9163;48.818;8.976;2023-04-12T14:09:14;1.33;;;0.83;;
15936;SDS011;9163;48.818;8.976;2023-04-12T14:11:49;2.17;;;0.80;;
15936;SDS011;9163;48.818;8.976;2023-04-12T14:14:19;0.87;;;0.60;;
15936;SDS011;9163;48.818;8.976;2023-04-12T14:16:47;1.50;;;0.80;;
15936;SDS011;9163;48.818;8.976;2023-04-12T14:19:16;1.43;;;0.70;;
15936;SDS011;9163;48.818;8.976;2023-04-12T14:21:43;1.80;;;0.87;;
15936;SDS011;9163;48.818;8.976;2023-04-12T14:24:12;1.40;;;0.60;;
15936;SDS011;9163;48.818;8.976;2023-04-12T14:26:40;1.10;;;0.60;;
15936;SDS011;9163;48.818;8.976;2023-04-12T14:29:07;1.33;;;0.80;;
15936;SDS011;9163;48.818;8.976;2023-04-12T14:31:34;1.90;;;0.83;;
15936;SDS011;9163;48.818;8.976;2023-04-12T14:34:02;1.00;;;0.80;;
15936;SDS011;9163;48.818;8.976;2023-04-12T14:36:31;2.07;;;0.70;;
15936;SDS011;9163;48.818;8.976;2023-04-12T14:38:58;2.00;;;0.70;;
15936;SDS011;9163;48.818;8.976;2023-04-12T14:41:28;1.07;;;0.60;;
15936;SDS011;9163;48.818;8.976;2023-04-12T14:43:55;1.57;;;0.70;;
15936;SDS011;9163;48.818;8.976;2023-04-12T14:46:24;1.70;;;0.80;;
15936;SDS011;9163;48.818;8.976;2023-04-12T14:48:52;2.87;;;0.93;;
15936;SDS011;9163;48.818;8.976;2023-04-12T14:51:21;1.80;;;0.80;;
15936;SDS011;9163;48.818;8.976;2023-04-12T14:53:49;1.40;;;1.00;;
15936;SDS011;9163;48.818;8.976;2023-04-12T14:56:20;1.20;;;0.70;;
15936;SDS011;9163;48.818;8.976;2023-04-12T14:58:49;2.53;;;0.90;;
15936;SDS011;9163;48.818;8.976;2023-04-12T15:01:18;3.80;;;0.90;;
15936;SDS011;9163;48.818;8.976;2023-04-12T15:03:45;0.60;;;0.40;;
15936;SDS011;9163;48.818;8.976;2023-04-12T15:06:12;3.90;;;1.20;;
15936;SDS011;9163;48.818;8.976;2023-04-12T15:08:40;0.80;;;0.20;;
15936;SDS011;9163;48.818;8.976;2023-04-12T15:11:09;0.20;;;0.20;;
15936;SDS011;9163;48.818;8.976;2023-04-12T15:13:37;0.40;;;0.20;;
15936;SDS011;9163;48.818;8.976;2023-04-12T15:16:06;0.57;;;0.20;;
15936;SDS011;9163;48.818;8.976;2023-04-12T15:18:34;0.43;;;0.20;;
15936;SDS011;9163;48.818;8.976;2023-04-12T15:21:04;0.83;;;0.37;;
15936;SDS011;9163;48.818;8.976;2023-04-12T15:23:32;1.43;;;0.30;;
15936;SDS011;9163;48.818;8.976;2023-04-12T15:26:00;0.70;;;0.30;;
15936;SDS011;9163;48.818;8.976;2023-04-12T15:28:30;1.37;;;0.30;;